sensor_id;sensor_type;location;lat;lon;timestamp;P1;durP1;ratioP1;P2;durP2;ratioP2
17820;SDS011;9035;42.554;23.188;2022-09-14T00:00:12;2.60;;;2.40;;
17820;SDS011;9035;42.554;23.188;2022-09-14T00:02:40;6.10;;;2.60;;
17820;SDS011;9035;42.554;23.188;2022-09-14T00:05:07;4.87;;;2.47;;
17820;SDS011;9035;42.554;23.188;2022-09-14T00:07:33;2.73;;;2.40;;
17820;SDS011;9035;42.554;23.188;2022-09-14T00:10:02;2.73;;;2.33;;
17820;SDS011;9035;42.554;23.188;2022-09-14T00:12:29;3.90;;;2.50;;
17820;SDS011;9035;42.554;23.188;2022-09-14T00:14:55;4.80;;;2.60;;
17820;SDS011;9035;42.554;23.188;2022-09-14T00:17:22;2.50;;;2.30;;
17820;SDS011;9035;42.554;23.188;2022-09-14T00:19:49;3.20;;;2.77;;
17820;SDS011;9035;42.554;23.188;2022-09-14T00:22:17;2.70;;;2.40;;
17820;SDS011;9035;42.554;23.188;2022-09-14T00:24:44;2.90;;;2.40;;
17820;SDS011;9035;42.554;23.188;2022-09-14T00:27:12;2.70;;;2.50;;
17820;SDS011;9035;42.554;23.188;2022-09-14T00:29:39;2.93;;;2.50;;
17820;SDS011;9035;42.554;23.188;2022-09-14T00:32:06;3.37;;;2.50;;
17820;SDS011;9035;42.554;23.188;2022-09-14T00:34:32;2.83;;;2.63;;
17820;SDS011;9035;42.554;23.188;2022-09-14T00:36:59;2.93;;;2.70;;
17820;SDS011;9035;42.554;23.188;2022-09-14T00:39:26;2.97;;;2.60;;
17820;SDS011;9035;42.554;23.188;2022-09-14T00:41:53;2.93;;;2.73;;
17820;SDS011;9035;42.554;23.188;2022-09-14T00:47:27;3.00;;;2.70;;
17820;SDS011;9035;42.554;23.188;2022-09-14T00:49:56;4.57;;;3.00;;
17820;SDS011;9035;42.554;23.188;2022-09-14T00:52:25;3.63;;;2.70;;
17820;SDS011;9035;42.554;23.188;2022-09-14T00:54:55;5.60;;;2.77;;
17820;SDS011;9035;42.554;23.188;2022-09-14T00:57:25;3.20;;;2.47;;
17820;SDS011;9035;42.554;23.188;2022-09-14T00:59:54;3.40;;;3.10;;
17820;SDS011;9035;42.554;23.188;2022-09-14T01:02:24;4.27;;;2.70;;
17820;SDS011;9035;42.554;23.188;2022-09-14T01:04:52;2.83;;;2.50;;
17820;SDS011;9035;42.554;23.188;2022-09-14T01:07:22;2.87;;;2.67;;
17820;SDS011;9035;42.554;23.188;2022-09-14T01:10:06;2.33;;;2.13;;
17820;SDS011;9035;42.554;23.188;2022-09-14T01:12:44;3.40;;;2.73;;
17820;SDS011;9035;42.554;23.188;2022-09-14T01:15:20;3.57;;;2.50;;
17820;SDS011;9035;42.554;23.188;2022-09-14T01:17:55;2.60;;;2.40;;
17820;SDS011;9035;42.554;23.188;2022-09-14T01:20:28;3.47;;;2.47;;
17820;SDS011;9035;42.554;23.188;2022-09-14T01:23:01;2.80;;;2.60;;
17820;SDS011;9035;42.554;23.188;2022-09-14T01:28:45;4.30;;;2.80;;
17820;SDS011;9035;42.554;23.188;2022-09-14T01:31:19;4.17;;;2.80;;
17820;SDS011;9035;42.554;23.188;2022-09-14T01:33:52;3.00;;;2.57;;
17820;SDS011;9035;42.554;23.188;2022-09-14T01:36:22;2.90;;;2.60;;
17820;SDS011;9035;42.554;23.188;2022-09-14T01:38:54;3.37;;;2.73;;
17820;SDS011;9035;42.554;23.188;2022-09-14T01:41:22;3.03;;;2.67;;
17820;SDS011;9035;42.554;23.188;2022-09-14T01:43:55;2.57;;;2.37;;
17820;SDS011;9035;42.554;23.188;2022-09-14T01:46:29;2.50;;;2.30;;
17820;SDS011;9035;42.554;23.188;2022-09-14T01:49:02;2.70;;;2.50;;
17820;SDS011;9035;42.554;23.188;2022-09-14T01:51:33;2.80;;;2.50;;
17820;SDS011;9035;42.554;23.188;2022-09-14T01:54:06;2.63;;;2.43;;
17820;SDS011;9035;42.554;23.188;2022-09-14T01:56:38;2.70;;;2.37;;
17820;SDS011;9035;42.554;23.188;2022-09-14T01:59:12;3.23;;;2.70;;
17820;SDS011;9035;42.554;23.188;2022-09-14T02:01:43;2.60;;;2.40;;
17820;SDS011;9035;42.554;23.188;2022-09-14T02:04:16;3.10;;;2.83;;
17820;SDS011;9035;42.554;23.188;2022-09-14T02:06:47;4.10;;;2.70;;
17820;SDS011;9035;42.554;23.188;2022-09-14T02:09:15;3.00;;;2.80;;
17820;SDS011;9035;42.554;23.188;2022-09-14T02:11:45;3.03;;;2.70;;
17820;SDS011;9035;42.554;23.188;2022-09-14T02:14:14;3.23;;;2.50;;
17820;SDS011;9035;42.554;23.188;2022-09-14T02:16:41;3.10;;;2.80;;
17820;SDS011;9035;42.554;23.188;2022-09-14T02:19:10;2.70;;;2.50;;
17820;SDS011;9035;42.554;23.188;2022-09-14T02:21:38;2.77;;;2.57;;
17820;SDS011;9035;42.554;23.188;2022-09-14T02:24:05;3.77;;;2.70;;
17820;SDS011;9035;42.554;23.188;2022-09-14T02:26:33;2.80;;;2.60;;
17820;SDS011;9035;42.554;23.188;2022-09-14T02:29:00;5.17;;;2.83;;
17820;SDS011;9035;42.554;23.188;2022-09-14T02:31:31;3.10;;;2.80;;
17820;SDS011;9035;42.554;23.188;2022-09-14T02:34:07;2.77;;;2.57;;
17820;SDS011;9035;42.554;23.188;2022-09-14T02:36:42;5.53;;;2.80;;
17820;SDS011;9035;42.554;23.188;2022-09-14T02:39:15;2.90;;;2.60;;
17820;SDS011;9035;42.554;23.188;2022-09-14T02:41:50;3.03;;;2.83;;
17820;SDS011;9035;42.554;23.188;2022-09-14T02:44:26;4.37;;;2.57;;
17820;SDS011;9035;42.554;23.188;2022-09-14T02:47:01;2.97;;;2.67;;
17820;SDS011;9035;42.554;23.188;2022-09-14T02:49:33;3.07;;;2.70;;
17820;SDS011;9035;42.554;23.188;2022-09-14T02:52:06;2.97;;;2.60;;
17820;SDS011;9035;42.554;23.188;2022-09-14T02:54:39;3.27;;;2.97;;
17820;SDS011;9035;42.554;23.188;2022-09-14T02:57:11;3.67;;;3.37;;
17820;SDS011;9035;42.554;23.188;2022-09-14T02:59:38;4.97;;;3.33;;
17820;SDS011;9035;42.554;23.188;2022-09-14T03:02:06;3.87;;;2.87;;
17820;SDS011;9035;42.554;23.188;2022-09-14T03:04:33;4.20;;;3.13;;
17820;SDS011;9035;42.554;23.188;2022-09-14T03:07:00;3.80;;;3.40;;
17820;SDS011;9035;42.554;23.188;2022-09-14T03:09:27;3.20;;;2.80;;
17820;SDS011;9035;42.554;23.188;2022-09-14T03:11:53;3.73;;;3.33;;
17820;SDS011;9035;42.554;23.188;2022-09-14T03:14:20;5.00;;;3.30;;
17820;SDS011;9035;42.554;23.188;2022-09-14T03:16:47;3.70;;;3.13;;
17820;SDS011;9035;42.554;23.188;2022-09-14T03:19:15;3.77;;;3.33;;
17820;SDS011;9035;42.554;23.188;2022-09-14T03:21:42;3.13;;;2.83;;
17820;SDS011;9035;42.554;23.188;2022-09-14T03:24:08;3.20;;;2.87;;
17820;SDS011;9035;42.554;23.188;2022-09-14T03:26:35;3.73;;;3.43;;
17820;SDS011;9035;42.554;23.188;2022-09-14T03:29:02;4.00;;;3.20;;
17820;SDS011;9035;42.554;23.188;2022-09-14T03:31:30;3.63;;;2.70;;
17820;SDS011;9035;42.554;23.188;2022-09-14T03:33:59;4.80;;;3.00;;
17820;SDS011;9035;42.554;23.188;2022-09-14T03:36:29;3.03;;;2.77;;
17820;SDS011;9035;42.554;23.188;2022-09-14T03:38:57;4.57;;;2.83;;
17820;SDS011;9035;42.554;23.188;2022-09-14T03:41:26;3.07;;;2.87;;
17820;SDS011;9035;42.554;23.188;2022-09-14T03:43:53;3.00;;;2.70;;
17820;SDS011;9035;42.554;23.188;2022-09-14T03:46:20;4.50;;;3.03;;
17820;SDS011;9035;42.554;23.188;2022-09-14T03:48:50;2.90;;;2.70;;
17820;SDS011;9035;42.554;23.188;2022-09-14T03:51:16;3.23;;;3.03;;
17820;SDS011;9035;42.554;23.188;2022-09-14T03:53:45;4.83;;;2.93;;
17820;SDS011;9035;42.554;23.188;2022-09-14T03:56:13;4.37;;;2.50;;
17820;SDS011;9035;42.554;23.188;2022-09-14T03:58:41;4.80;;;3.27;;
17820;SDS011;9035;42.554;23.188;2022-09-14T04:01:10;2.73;;;2.53;;
17820;SDS011;9035;42.554;23.188;2022-09-14T04:03:38;2.57;;;2.37;;
17820;SDS011;9035;42.554;23.188;2022-09-14T04:06:06;3.57;;;2.97;;
17820;SDS011;9035;42.554;23.188;2022-09-14T04:08:35;3.33;;;2.73;;
17820;SDS011;9035;42.554;23.188;2022-09-14T04:11:08;4.80;;;2.80;;
17820;SDS011;9035;42.554;23.188;2022-09-14T04:13:37;3.30;;;3.00;;
17820;SDS011;9035;42.554;23.188;2022-09-14T04:16:04;3.63;;;2.60;;
17820;SDS011;9035;42.554;23.188;2022-09-14T04:18:31;4.07;;;2.90;;
17820;SDS011;9035;42.554;23.188;2022-09-14T04:20:58;4.20;;;2.83;;
17820;SDS011;9035;42.554;23.188;2022-09-14T04:23:26;4.73;;;2.70;;
17820;SDS011;9035;42.554;23.188;2022-09-14T04:25:53;2.77;;;2.53;;
17820;SDS011;9035;42.554;23.188;2022-09-14T04:28:21;3.00;;;2.50;;
17820;SDS011;9035;42.554;23.188;2022-09-14T04:30:55;5.43;;;2.83;;
17820;SDS011;9035;42.554;23.188;2022-09-14T04:33:23;4.53;;;2.90;;
17820;SDS011;9035;42.554;23.188;2022-09-14T04:35:55;3.00;;;2.70;;
17820;SDS011;9035;42.554;23.188;2022-09-14T04:38:23;2.80;;;2.60;;
17820;SDS011;9035;42.554;23.188;2022-09-14T04:40:50;5.40;;;2.73;;
17820;SDS011;9035;42.554;23.188;2022-09-14T04:43:16;3.37;;;2.40;;
17820;SDS011;9035;42.554;23.188;2022-09-14T04:45:44;3.93;;;2.63;;
17820;SDS011;9035;42.554;23.188;2022-09-14T04:48:11;3.30;;;2.60;;
17820;SDS011;9035;42.554;23.188;2022-09-14T04:50:38;3.80;;;2.57;;
17820;SDS011;9035;42.554;23.188;2022-09-14T04:53:04;3.87;;;2.57;;
17820;SDS011;9035;42.554;23.188;2022-09-14T04:55:31;2.83;;;2.40;;
17820;SDS011;9035;42.554;23.188;2022-09-14T04:57:58;2.73;;;2.53;;
17820;SDS011;9035;42.554;23.188;2022-09-14T05:00:24;3.03;;;2.70;;
17820;SDS011;9035;42.554;23.188;2022-09-14T05:02:52;3.33;;;2.83;;
17820;SDS011;9035;42.554;23.188;2022-09-14T05:05:19;3.77;;;2.63;;
17820;SDS011;9035;42.554;23.188;2022-09-14T05:07:46;3.50;;;2.77;;
17820;SDS011;9035;42.554;23.188;2022-09-14T05:10:12;3.43;;;2.90;;
17820;SDS011;9035;42.554;23.188;2022-09-14T05:12:39;3.37;;;3.07;;
17820;SDS011;9035;42.554;23.188;2022-09-14T05:15:07;5.17;;;2.97;;
17820;SDS011;9035;42.554;23.188;2022-09-14T05:17:34;3.20;;;2.50;;
17820;SDS011;9035;42.554;23.188;2022-09-14T05:20:03;3.80;;;3.10;;
17820;SDS011;9035;42.554;23.188;2022-09-14T05:22:30;4.30;;;2.77;;
17820;SDS011;9035;42.554;23.188;2022-09-14T05:24:57;4.00;;;2.80;;
17820;SDS011;9035;42.554;23.188;2022-09-14T05:27:23;4.20;;;3.10;;
17820;SDS011;9035;42.554;23.188;2022-09-14T05:29:50;5.47;;;3.20;;
17820;SDS011;9035;42.554;23.188;2022-09-14T05:32:17;5.03;;;3.20;;
17820;SDS011;9035;42.554;23.188;2022-09-14T05:34:43;4.43;;;2.90;;
17820;SDS011;9035;42.554;23.188;2022-09-14T05:37:11;3.63;;;2.73;;
17820;SDS011;9035;42.554;23.188;2022-09-14T05:39:38;4.20;;;3.17;;
17820;SDS011;9035;42.554;23.188;2022-09-14T05:42:05;8.73;;;3.10;;
17820;SDS011;9035;42.554;23.188;2022-09-14T05:44:31;9.90;;;2.90;;
17820;SDS011;9035;42.554;23.188;2022-09-14T05:46:58;5.50;;;2.80;;
17820;SDS011;9035;42.554;23.188;2022-09-14T05:49:25;3.50;;;3.10;;
17820;SDS011;9035;42.554;23.188;2022-09-14T05:51:51;5.47;;;2.70;;
17820;SDS011;9035;42.554;23.188;2022-09-14T05:54:20;5.20;;;2.87;;
17820;SDS011;9035;42.554;23.188;2022-09-14T05:56:46;6.00;;;3.13;;
17820;SDS011;9035;42.554;23.188;2022-09-14T05:59:13;2.90;;;2.67;;
17820;SDS011;9035;42.554;23.188;2022-09-14T06:01:40;5.93;;;3.00;;
17820;SDS011;9035;42.554;23.188;2022-09-14T06:04:07;4.93;;;3.03;;
17820;SDS011;9035;42.554;23.188;2022-09-14T06:06:36;3.90;;;3.17;;
17820;SDS011;9035;42.554;23.188;2022-09-14T06:09:03;4.83;;;2.93;;
17820;SDS011;9035;42.554;23.188;2022-09-14T06:11:32;3.97;;;2.80;;
17820;SDS011;9035;42.554;23.188;2022-09-14T06:14:00;5.60;;;3.00;;
17820;SDS011;9035;42.554;23.188;2022-09-14T06:16:28;4.70;;;2.77;;
17820;SDS011;9035;42.554;23.188;2022-09-14T06:18:56;5.63;;;3.13;;
17820;SDS011;9035;42.554;23.188;2022-09-14T06:21:26;4.10;;;2.60;;
17820;SDS011;9035;42.554;23.188;2022-09-14T06:23:53;3.97;;;2.83;;
17820;SDS011;9035;42.554;23.188;2022-09-14T06:26:20;4.70;;;3.07;;
17820;SDS011;9035;42.554;23.188;2022-09-14T06:28:49;2.70;;;2.50;;
17820;SDS011;9035;42.554;23.188;2022-09-14T06:31:16;3.80;;;2.80;;
17820;SDS011;9035;42.554;23.188;2022-09-14T06:33:46;11.37;;;3.13;;
17820;SDS011;9035;42.554;23.188;2022-09-14T06:36:15;15.43;;;3.90;;
17820;SDS011;9035;42.554;23.188;2022-09-14T06:38:43;10.67;;;3.27;;
17820;SDS011;9035;42.554;23.188;2022-09-14T06:41:12;5.20;;;3.00;;
17820;SDS011;9035;42.554;23.188;2022-09-14T06:43:42;3.20;;;2.80;;
17820;SDS011;9035;42.554;23.188;2022-09-14T06:46:11;5.20;;;3.13;;
17820;SDS011;9035;42.554;23.188;2022-09-14T06:48:41;4.77;;;2.77;;
17820;SDS011;9035;42.554;23.188;2022-09-14T06:51:11;3.10;;;2.80;;
17820;SDS011;9035;42.554;23.188;2022-09-14T06:53:40;3.43;;;2.63;;
17820;SDS011;9035;42.554;23.188;2022-09-14T06:56:07;3.00;;;2.43;;
17820;SDS011;9035;42.554;23.188;2022-09-14T06:58:34;4.07;;;2.70;;
17820;SDS011;9035;42.554;23.188;2022-09-14T07:01:01;2.50;;;2.20;;
17820;SDS011;9035;42.554;23.188;2022-09-14T07:03:29;3.27;;;2.67;;
17820;SDS011;9035;42.554;23.188;2022-09-14T07:06:02;3.13;;;2.73;;
17820;SDS011;9035;42.554;23.188;2022-09-14T07:08:31;3.47;;;2.70;;
17820;SDS011;9035;42.554;23.188;2022-09-14T07:10:58;3.27;;;2.83;;
17820;SDS011;9035;42.554;23.188;2022-09-14T07:13:26;4.97;;;2.90;;
17820;SDS011;9035;42.554;23.188;2022-09-14T07:15:53;3.80;;;3.07;;
17820;SDS011;9035;42.554;23.188;2022-09-14T07:18:20;3.80;;;3.40;;
17820;SDS011;9035;42.554;23.188;2022-09-14T07:20:53;3.17;;;2.77;;
17820;SDS011;9035;42.554;23.188;2022-09-14T07:23:20;3.43;;;3.10;;
17820;SDS011;9035;42.554;23.188;2022-09-14T07:25:47;5.50;;;2.97;;
17820;SDS011;9035;42.554;23.188;2022-09-14T07:28:24;7.67;;;3.03;;
17820;SDS011;9035;42.554;23.188;2022-09-14T07:30:50;3.50;;;2.80;;
17820;SDS011;9035;42.554;23.188;2022-09-14T07:33:17;2.80;;;2.60;;
17820;SDS011;9035;42.554;23.188;2022-09-14T07:35:44;2.67;;;2.47;;
17820;SDS011;9035;42.554;23.188;2022-09-14T07:38:12;3.40;;;2.70;;
17820;SDS011;9035;42.554;23.188;2022-09-14T07:40:38;5.00;;;2.93;;
17820;SDS011;9035;42.554;23.188;2022-09-14T07:43:05;2.80;;;2.60;;
17820;SDS011;9035;42.554;23.188;2022-09-14T07:45:33;3.23;;;2.33;;
17820;SDS011;9035;42.554;23.188;2022-09-14T07:48:01;3.80;;;2.40;;
17820;SDS011;9035;42.554;23.188;2022-09-14T07:50:28;4.90;;;2.33;;
17820;SDS011;9035;42.554;23.188;2022-09-14T07:52:54;4.60;;;2.60;;
17820;SDS011;9035;42.554;23.188;2022-09-14T07:55:23;3.07;;;2.30;;
17820;SDS011;9035;42.554;23.188;2022-09-14T07:57:50;4.20;;;2.60;;
17820;SDS011;9035;42.554;23.188;2022-09-14T08:00:16;3.17;;;2.60;;
17820;SDS011;9035;42.554;23.188;2022-09-14T08:02:46;3.20;;;2.27;;
17820;SDS011;9035;42.554;23.188;2022-09-14T08:05:17;3.83;;;2.40;;
17820;SDS011;9035;42.554;23.188;2022-09-14T08:07:44;3.13;;;2.30;;
17820;SDS011;9035;42.554;23.188;2022-09-14T08:10:11;2.80;;;2.37;;
17820;SDS011;9035;42.554;23.188;2022-09-14T08:12:39;4.83;;;2.10;;
17820;SDS011;9035;42.554;23.188;2022-09-14T08:15:06;2.23;;;2.03;;
17820;SDS011;9035;42.554;23.188;2022-09-14T08:17:34;3.50;;;2.07;;
17820;SDS011;9035;42.554;23.188;2022-09-14T08:20:01;2.10;;;1.90;;
17820;SDS011;9035;42.554;23.188;2022-09-14T08:22:28;3.70;;;2.10;;
17820;SDS011;9035;42.554;23.188;2022-09-14T08:24:54;2.53;;;1.77;;
17820;SDS011;9035;42.554;23.188;2022-09-14T08:27:21;2.50;;;1.90;;
17820;SDS011;9035;42.554;23.188;2022-09-14T08:29:50;3.30;;;2.33;;
17820;SDS011;9035;42.554;23.188;2022-09-14T08:32:16;3.23;;;2.10;;
17820;SDS011;9035;42.554;23.188;2022-09-14T08:34:43;3.77;;;2.00;;
17820;SDS011;9035;42.554;23.188;2022-09-14T08:37:10;1.80;;;1.70;;
17820;SDS011;9035;42.554;23.188;2022-09-14T08:39:37;2.03;;;1.80;;
17820;SDS011;9035;42.554;23.188;2022-09-14T08:42:04;4.37;;;2.00;;
17820;SDS011;9035;42.554;23.188;2022-09-14T08:44:33;2.13;;;2.00;;
17820;SDS011;9035;42.554;23.188;2022-09-14T08:47:07;2.43;;;1.80;;
17820;SDS011;9035;42.554;23.188;2022-09-14T08:49:39;2.70;;;1.80;;
17820;SDS011;9035;42.554;23.188;2022-09-14T08:52:16;2.20;;;2.00;;
17820;SDS011;9035;42.554;23.188;2022-09-14T08:54:52;1.90;;;1.57;;
17820;SDS011;9035;42.554;23.188;2022-09-14T08:57:24;2.07;;;1.87;;
17820;SDS011;9035;42.554;23.188;2022-09-14T08:59:58;3.20;;;1.67;;
17820;SDS011;9035;42.554;23.188;2022-09-14T09:02:35;1.67;;;1.53;;
17820;SDS011;9035;42.554;23.188;2022-09-14T09:05:24;2.37;;;1.80;;
17820;SDS011;9035;42.554;23.188;2022-09-14T09:08:01;7.27;;;1.83;;
17820;SDS011;9035;42.554;23.188;2022-09-14T09:10:34;2.10;;;1.70;;
17820;SDS011;9035;42.554;23.188;2022-09-14T09:13:04;2.10;;;1.57;;
17820;SDS011;9035;42.554;23.188;2022-09-14T09:15:36;1.50;;;1.40;;
17820;SDS011;9035;42.554;23.188;2022-09-14T09:18:10;1.50;;;1.40;;
17820;SDS011;9035;42.554;23.188;2022-09-14T09:20:43;1.60;;;1.50;;
17820;SDS011;9035;42.554;23.188;2022-09-14T09:23:13;1.30;;;1.20;;
17820;SDS011;9035;42.554;23.188;2022-09-14T09:25:45;3.50;;;1.70;;
17820;SDS011;9035;42.554;23.188;2022-09-14T09:28:17;2.40;;;1.60;;
17820;SDS011;9035;42.554;23.188;2022-09-14T09:30:45;3.57;;;1.43;;
17820;SDS011;9035;42.554;23.188;2022-09-14T09:33:14;1.80;;;1.70;;
17820;SDS011;9035;42.554;23.188;2022-09-14T09:35:42;2.47;;;1.30;;
17820;SDS011;9035;42.554;23.188;2022-09-14T09:38:11;3.07;;;1.53;;
17820;SDS011;9035;42.554;23.188;2022-09-14T09:40:42;3.33;;;1.77;;
17820;SDS011;9035;42.554;23.188;2022-09-14T09:43:11;2.83;;;1.70;;
17820;SDS011;9035;42.554;23.188;2022-09-14T09:45:45;3.37;;;1.50;;
17820;SDS011;9035;42.554;23.188;2022-09-14T09:48:17;3.97;;;1.80;;
17820;SDS011;9035;42.554;23.188;2022-09-14T09:50:48;1.93;;;1.40;;
17820;SDS011;9035;42.554;23.188;2022-09-14T09:53:21;1.67;;;1.50;;
17820;SDS011;9035;42.554;23.188;2022-09-14T09:55:49;4.37;;;1.73;;
17820;SDS011;9035;42.554;23.188;2022-09-14T09:58:20;8.37;;;1.87;;
17820;SDS011;9035;42.554;23.188;2022-09-14T10:00:54;5.03;;;1.60;;
17820;SDS011;9035;42.554;23.188;2022-09-14T10:03:28;5.07;;;1.70;;
17820;SDS011;9035;42.554;23.188;2022-09-14T10:06:00;2.53;;;1.70;;
17820;SDS011;9035;42.554;23.188;2022-09-14T10:08:29;1.93;;;1.73;;
17820;SDS011;9035;42.554;23.188;2022-09-14T10:10:59;2.93;;;1.60;;
17820;SDS011;9035;42.554;23.188;2022-09-14T10:13:28;2.37;;;1.33;;
17820;SDS011;9035;42.554;23.188;2022-09-14T10:16:03;2.80;;;1.50;;
17820;SDS011;9035;42.554;23.188;2022-09-14T10:18:33;2.53;;;1.80;;
17820;SDS011;9035;42.554;23.188;2022-09-14T10:21:04;3.57;;;1.50;;
17820;SDS011;9035;42.554;23.188;2022-09-14T10:23:34;3.33;;;1.63;;
17820;SDS011;9035;42.554;23.188;2022-09-14T10:28:53;2.97;;;1.60;;
17820;SDS011;9035;42.554;23.188;2022-09-14T10:31:21;4.37;;;1.57;;
17820;SDS011;9035;42.554;23.188;2022-09-14T10:33:54;2.83;;;1.53;;
17820;SDS011;9035;42.554;23.188;2022-09-14T10:36:22;4.07;;;1.70;;
17820;SDS011;9035;42.554;23.188;2022-09-14T10:38:51;6.17;;;1.80;;
17820;SDS011;9035;42.554;23.188;2022-09-14T10:41:23;3.67;;;1.50;;
17820;SDS011;9035;42.554;23.188;2022-09-14T10:43:59;2.73;;;1.40;;
17820;SDS011;9035;42.554;23.188;2022-09-14T10:46:47;5.17;;;1.60;;
17820;SDS011;9035;42.554;23.188;2022-09-14T10:49:33;4.37;;;2.00;;
17820;SDS011;9035;42.554;23.188;2022-09-14T10:52:11;7.37;;;1.80;;
17820;SDS011;9035;42.554;23.188;2022-09-14T10:54:53;2.73;;;1.50;;
17820;SDS011;9035;42.554;23.188;2022-09-14T10:57:30;3.47;;;1.50;;
17820;SDS011;9035;42.554;23.188;2022-09-14T11:00:09;4.30;;;1.87;;
17820;SDS011;9035;42.554;23.188;2022-09-14T11:02:44;2.20;;;1.30;;
17820;SDS011;9035;42.554;23.188;2022-09-14T11:05:36;3.97;;;1.50;;
17820;SDS011;9035;42.554;23.188;2022-09-14T11:08:11;4.30;;;1.70;;
17820;SDS011;9035;42.554;23.188;2022-09-14T11:10:53;5.03;;;1.67;;
17820;SDS011;9035;42.554;23.188;2022-09-14T11:13:56;6.70;;;1.77;;
17820;SDS011;9035;42.554;23.188;2022-09-14T11:16:35;6.43;;;2.20;;
17820;SDS011;9035;42.554;23.188;2022-09-14T11:19:15;5.60;;;2.10;;
17820;SDS011;9035;42.554;23.188;2022-09-14T11:21:56;10.20;;;1.88;;
17820;SDS011;9035;42.554;23.188;2022-09-14T11:24:30;3.70;;;1.85;;
17820;SDS011;9035;42.554;23.188;2022-09-14T11:27:03;5.60;;;2.08;;
17820;SDS011;9035;42.554;23.188;2022-09-14T11:29:37;2.55;;;1.70;;
17820;SDS011;9035;42.554;23.188;2022-09-14T11:32:08;8.25;;;2.10;;
17820;SDS011;9035;42.554;23.188;2022-09-14T11:34:40;7.88;;;2.08;;
17820;SDS011;9035;42.554;23.188;2022-09-14T11:37:13;7.63;;;1.73;;
17820;SDS011;9035;42.554;23.188;2022-09-14T11:39:44;6.85;;;1.77;;
17820;SDS011;9035;42.554;23.188;2022-09-14T11:42:15;8.02;;;1.85;;
17820;SDS011;9035;42.554;23.188;2022-09-14T11:44:48;3.40;;;1.98;;
17820;SDS011;9035;42.554;23.188;2022-09-14T11:47:19;4.90;;;1.90;;
17820;SDS011;9035;42.554;23.188;2022-09-14T11:49:51;4.38;;;1.73;;
17820;SDS011;9035;42.554;23.188;2022-09-14T11:52:24;4.13;;;1.77;;
17820;SDS011;9035;42.554;23.188;2022-09-14T11:54:52;6.90;;;1.70;;
17820;SDS011;9035;42.554;23.188;2022-09-14T11:57:20;4.00;;;1.73;;
17820;SDS011;9035;42.554;23.188;2022-09-14T11:59:51;7.68;;;1.70;;
17820;SDS011;9035;42.554;23.188;2022-09-14T12:05:39;3.97;;;1.70;;
17820;SDS011;9035;42.554;23.188;2022-09-14T12:11:00;3.05;;;1.42;;
17820;SDS011;9035;42.554;23.188;2022-09-14T12:13:28;11.55;;;1.75;;
17820;SDS011;9035;42.554;23.188;2022-09-14T12:16:02;3.67;;;1.50;;
17820;SDS011;9035;42.554;23.188;2022-09-14T12:18:30;1.88;;;1.17;;
17820;SDS011;9035;42.554;23.188;2022-09-14T12:21:01;5.00;;;1.40;;
17820;SDS011;9035;42.554;23.188;2022-09-14T12:23:40;4.55;;;1.45;;
17820;SDS011;9035;42.554;23.188;2022-09-14T12:26:23;3.17;;;1.30;;
17820;SDS011;9035;42.554;23.188;2022-09-14T12:28:56;4.53;;;1.42;;
17820;SDS011;9035;42.554;23.188;2022-09-14T12:31:32;2.90;;;1.60;;
17820;SDS011;9035;42.554;23.188;2022-09-14T12:34:23;4.20;;;1.60;;
17820;SDS011;9035;42.554;23.188;2022-09-14T12:42:52;3.53;;;1.33;;
17820;SDS011;9035;42.554;23.188;2022-09-14T12:51:23;4.00;;;1.30;;
17820;SDS011;9035;42.554;23.188;2022-09-14T12:53:58;1.90;;;1.40;;
17820;SDS011;9035;42.554;23.188;2022-09-14T12:56:32;4.50;;;1.30;;
17820;SDS011;9035;42.554;23.188;2022-09-14T12:59:08;4.78;;;1.40;;
17820;SDS011;9035;42.554;23.188;2022-09-14T13:01:42;3.58;;;1.40;;
17820;SDS011;9035;42.554;23.188;2022-09-14T13:04:14;5.55;;;1.65;;
17820;SDS011;9035;42.554;23.188;2022-09-14T13:06:47;4.95;;;1.35;;
17820;SDS011;9035;42.554;23.188;2022-09-14T13:09:18;4.18;;;1.48;;
17820;SDS011;9035;42.554;23.188;2022-09-14T13:11:47;2.05;;;1.10;;
17820;SDS011;9035;42.554;23.188;2022-09-14T13:14:21;2.80;;;1.30;;
17820;SDS011;9035;42.554;23.188;2022-09-14T13:16:50;5.05;;;1.35;;
17820;SDS011;9035;42.554;23.188;2022-09-14T13:19:19;4.70;;;1.50;;
17820;SDS011;9035;42.554;23.188;2022-09-14T13:21:50;2.42;;;1.10;;
17820;SDS011;9035;42.554;23.188;2022-09-14T13:24:20;1.63;;;1.05;;
17820;SDS011;9035;42.554;23.188;2022-09-14T13:26:49;1.48;;;1.23;;
17820;SDS011;9035;42.554;23.188;2022-09-14T13:29:16;7.40;;;1.45;;
17820;SDS011;9035;42.554;23.188;2022-09-14T13:31:45;3.20;;;1.35;;
17820;SDS011;9035;42.554;23.188;2022-09-14T13:34:13;4.50;;;1.50;;
17820;SDS011;9035;42.554;23.188;2022-09-14T13:36:45;4.28;;;1.25;;
17820;SDS011;9035;42.554;23.188;2022-09-14T13:39:24;1.98;;;1.38;;
17820;SDS011;9035;42.554;23.188;2022-09-14T13:41:53;2.42;;;1.20;;
17820;SDS011;9035;42.554;23.188;2022-09-14T13:44:23;5.55;;;1.40;;
17820;SDS011;9035;42.554;23.188;2022-09-14T13:46:55;3.33;;;1.38;;
17820;SDS011;9035;42.554;23.188;2022-09-14T13:49:24;2.67;;;1.40;;
17820;SDS011;9035;42.554;23.188;2022-09-14T13:51:51;3.25;;;1.10;;
17820;SDS011;9035;42.554;23.188;2022-09-14T13:54:24;1.20;;;1.10;;
17820;SDS011;9035;42.554;23.188;2022-09-14T13:57:12;3.10;;;1.10;;
17820;SDS011;9035;42.554;23.188;2022-09-14T14:02:31;3.08;;;1.30;;
17820;SDS011;9035;42.554;23.188;2022-09-14T14:05:00;2.33;;;1.40;;
17820;SDS011;9035;42.554;23.188;2022-09-14T14:07:29;4.68;;;1.45;;
17820;SDS011;9035;42.554;23.188;2022-09-14T14:09:58;2.30;;;1.40;;
17820;SDS011;9035;42.554;23.188;2022-09-14T14:12:26;3.05;;;1.10;;
17820;SDS011;9035;42.554;23.188;2022-09-14T14:14:56;20.63;;;3.38;;
17820;SDS011;9035;42.554;23.188;2022-09-14T14:17:29;2.15;;;1.20;;
17820;SDS011;9035;42.554;23.188;2022-09-14T14:22:59;6.00;;;1.17;;
17820;SDS011;9035;42.554;23.188;2022-09-14T14:25:42;2.47;;;1.27;;
17820;SDS011;9035;42.554;23.188;2022-09-14T14:28:14;15.82;;;2.03;;
17820;SDS011;9035;42.554;23.188;2022-09-14T14:30:43;10.43;;;1.75;;
17820;SDS011;9035;42.554;23.188;2022-09-14T14:33:12;1.33;;;1.17;;
17820;SDS011;9035;42.554;23.188;2022-09-14T14:35:42;2.67;;;1.15;;
17820;SDS011;9035;42.554;23.188;2022-09-14T14:38:09;2.90;;;1.00;;
17820;SDS011;9035;42.554;23.188;2022-09-14T14:40:36;6.00;;;1.50;;
17820;SDS011;9035;42.554;23.188;2022-09-14T14:43:04;2.13;;;1.17;;
17820;SDS011;9035;42.554;23.188;2022-09-14T14:45:32;1.40;;;1.15;;
17820;SDS011;9035;42.554;23.188;2022-09-14T14:47:59;4.20;;;1.27;;
17820;SDS011;9035;42.554;23.188;2022-09-14T14:50:29;1.25;;;1.00;;
17820;SDS011;9035;42.554;23.188;2022-09-14T14:52:58;2.42;;;1.10;;
17820;SDS011;9035;42.554;23.188;2022-09-14T14:55:25;1.80;;;1.27;;
17820;SDS011;9035;42.554;23.188;2022-09-14T14:57:56;2.97;;;1.30;;
17820;SDS011;9035;42.554;23.188;2022-09-14T15:00:25;1.58;;;1.40;;
17820;SDS011;9035;42.554;23.188;2022-09-14T15:02:52;3.20;;;1.08;;
17820;SDS011;9035;42.554;23.188;2022-09-14T15:05:19;2.92;;;1.40;;
17820;SDS011;9035;42.554;23.188;2022-09-14T15:07:47;3.10;;;1.45;;
17820;SDS011;9035;42.554;23.188;2022-09-14T15:10:17;3.80;;;1.50;;
17820;SDS011;9035;42.554;23.188;2022-09-14T15:12:44;3.72;;;1.33;;
17820;SDS011;9035;42.554;23.188;2022-09-14T15:15:11;1.42;;;1.00;;
17820;SDS011;9035;42.554;23.188;2022-09-14T15:17:40;1.20;;;1.10;;
17820;SDS011;9035;42.554;23.188;2022-09-14T15:20:07;2.75;;;1.20;;
17820;SDS011;9035;42.554;23.188;2022-09-14T15:22:35;2.33;;;1.40;;
17820;SDS011;9035;42.554;23.188;2022-09-14T15:25:04;2.70;;;1.00;;
17820;SDS011;9035;42.554;23.188;2022-09-14T15:27:32;2.17;;;1.15;;
17820;SDS011;9035;42.554;23.188;2022-09-14T15:29:58;2.17;;;1.10;;
17820;SDS011;9035;42.554;23.188;2022-09-14T15:32:25;2.63;;;1.25;;
17820;SDS011;9035;42.554;23.188;2022-09-14T15:34:52;2.35;;;1.30;;
17820;SDS011;9035;42.554;23.188;2022-09-14T15:37:19;3.28;;;1.20;;